sensor_id;sensor_type;location;lat;lon;timestamp;P1;durP1;ratioP1;P2;durP2;ratioP2
52104;SDS011;38103;42.776;23.112;2022-09-20T00:01:01;4.85;;;1.90;;
52104;SDS011;38103;42.776;23.112;2022-09-20T00:03:39;4.95;;;1.77;;
52104;SDS011;38103;42.776;23.112;2022-09-20T00:06:09;5.00;;;1.90;;
52104;SDS011;38103;42.776;23.112;2022-09-20T00:08:38;4.45;;;2.10;;
52104;SDS011;38103;42.776;23.112;2022-09-20T00:11:09;4.50;;;1.95;;
52104;SDS011;38103;42.776;23.112;2022-09-20T00:13:40;3.28;;;1.75;;
52104;SDS011;38103;42.776;23.112;2022-09-20T00:16:11;3.10;;;1.65;;
52104;SDS011;38103;42.776;23.112;2022-09-20T00:18:38;2.60;;;1.63;;
52104;SDS011;38103;42.776;23.112;2022-09-20T00:21:04;5.07;;;1.75;;
52104;SDS011;38103;42.776;23.112;2022-09-20T00:23:30;4.63;;;1.80;;
52104;SDS011;38103;42.776;23.112;2022-09-20T00:25:58;4.68;;;2.03;;
52104;SDS011;38103;42.776;23.112;2022-09-20T00:28:25;4.63;;;1.90;;
52104;SDS011;38103;42.776;23.112;2022-09-20T00:30:52;5.18;;;1.90;;
52104;SDS011;38103;42.776;23.112;2022-09-20T00:33:19;3.83;;;1.95;;
52104;SDS011;38103;42.776;23.112;2022-09-20T00:35:45;5.20;;;2.10;;
52104;SDS011;38103;42.776;23.112;2022-09-20T00:38:11;5.30;;;2.05;;
52104;SDS011;38103;42.776;23.112;2022-09-20T00:40:38;5.00;;;2.10;;
52104;SDS011;38103;42.776;23.112;2022-09-20T00:43:04;6.50;;;2.20;;
52104;SDS011;38103;42.776;23.112;2022-09-20T00:45:30;6.03;;;2.22;;
52104;SDS011;38103;42.776;23.112;2022-09-20T00:50:48;6.05;;;2.33;;
52104;SDS011;38103;42.776;23.112;2022-09-20T00:53:22;6.28;;;2.35;;
52104;SDS011;38103;42.776;23.112;2022-09-20T00:58:27;7.45;;;2.60;;
52104;SDS011;38103;42.776;23.112;2022-09-20T01:00:55;7.40;;;2.67;;
52104;SDS011;38103;42.776;23.112;2022-09-20T01:03:23;6.18;;;2.50;;
52104;SDS011;38103;42.776;23.112;2022-09-20T01:05:52;7.18;;;2.70;;
52104;SDS011;38103;42.776;23.112;2022-09-20T01:08:19;7.10;;;2.58;;
52104;SDS011;38103;42.776;23.112;2022-09-20T01:10:48;7.30;;;2.67;;
52104;SDS011;38103;42.776;23.112;2022-09-20T01:13:14;7.68;;;2.83;;
52104;SDS011;38103;42.776;23.112;2022-09-20T01:15:39;5.85;;;2.35;;
52104;SDS011;38103;42.776;23.112;2022-09-20T01:18:09;7.28;;;2.63;;
52104;SDS011;38103;42.776;23.112;2022-09-20T01:20:38;7.22;;;2.63;;
52104;SDS011;38103;42.776;23.112;2022-09-20T01:28:35;7.15;;;2.40;;
52104;SDS011;38103;42.776;23.112;2022-09-20T01:31:07;5.78;;;2.25;;
52104;SDS011;38103;42.776;23.112;2022-09-20T01:33:51;5.72;;;2.40;;
52104;SDS011;38103;42.776;23.112;2022-09-20T01:36:25;6.35;;;2.53;;
52104;SDS011;38103;42.776;23.112;2022-09-20T01:39:07;7.43;;;2.70;;
52104;SDS011;38103;42.776;23.112;2022-09-20T01:41:45;7.82;;;3.00;;
52104;SDS011;38103;42.776;23.112;2022-09-20T01:44:15;7.85;;;2.70;;
52104;SDS011;38103;42.776;23.112;2022-09-20T01:46:48;7.63;;;3.08;;
52104;SDS011;38103;42.776;23.112;2022-09-20T02:13:30;8.68;;;3.20;;
52104;SDS011;38103;42.776;23.112;2022-09-20T02:19:23;9.68;;;3.67;;
52104;SDS011;38103;42.776;23.112;2022-09-20T02:24:45;10.85;;;3.72;;
52104;SDS011;38103;42.776;23.112;2022-09-20T02:27:17;9.20;;;3.47;;
52104;SDS011;38103;42.776;23.112;2022-09-20T02:32:57;9.85;;;3.65;;
52104;SDS011;38103;42.776;23.112;2022-09-20T02:43:13;8.25;;;3.33;;
52104;SDS011;38103;42.776;23.112;2022-09-20T02:48:28;8.23;;;3.15;;
52104;SDS011;38103;42.776;23.112;2022-09-20T02:51:27;8.82;;;3.40;;
52104;SDS011;38103;42.776;23.112;2022-09-20T02:59:48;8.77;;;3.50;;
52104;SDS011;38103;42.776;23.112;2022-09-20T03:02:24;8.73;;;3.25;;
52104;SDS011;38103;42.776;23.112;2022-09-20T03:13:51;8.48;;;3.28;;
52104;SDS011;38103;42.776;23.112;2022-09-20T03:19:03;9.10;;;3.35;;
52104;SDS011;38103;42.776;23.112;2022-09-20T03:30:31;8.15;;;3.13;;
52104;SDS011;38103;42.776;23.112;2022-09-20T03:33:11;7.78;;;3.03;;
52104;SDS011;38103;42.776;23.112;2022-09-20T03:38:38;7.55;;;2.95;;
52104;SDS011;38103;42.776;23.112;2022-09-20T03:44:04;8.40;;;3.28;;
52104;SDS011;38103;42.776;23.112;2022-09-20T03:46:45;11.15;;;3.25;;
52104;SDS011;38103;42.776;23.112;2022-09-20T03:52:10;8.75;;;3.30;;
52104;SDS011;38103;42.776;23.112;2022-09-20T03:55:04;8.20;;;3.08;;
52104;SDS011;38103;42.776;23.112;2022-09-20T03:57:36;8.80;;;3.70;;
52104;SDS011;38103;42.776;23.112;2022-09-20T04:00:07;9.15;;;3.63;;
52104;SDS011;38103;42.776;23.112;2022-09-20T04:05:22;9.18;;;3.10;;
52104;SDS011;38103;42.776;23.112;2022-09-20T04:10:56;8.95;;;3.40;;
52104;SDS011;38103;42.776;23.112;2022-09-20T04:13:37;8.73;;;3.22;;
52104;SDS011;38103;42.776;23.112;2022-09-20T04:18:49;10.30;;;3.42;;
52104;SDS011;38103;42.776;23.112;2022-09-20T04:21:36;7.90;;;3.17;;
52104;SDS011;38103;42.776;23.112;2022-09-20T04:27:00;8.50;;;3.40;;
52104;SDS011;38103;42.776;23.112;2022-09-20T04:29:52;8.77;;;3.40;;
52104;SDS011;38103;42.776;23.112;2022-09-20T04:32:30;7.53;;;2.97;;
52104;SDS011;38103;42.776;23.112;2022-09-20T04:35:30;20.05;;;7.90;;
52104;SDS011;38103;42.776;23.112;2022-09-20T04:38:22;20.23;;;10.02;;
52104;SDS011;38103;42.776;23.112;2022-09-20T05:15:28;5.95;;;2.40;;
52104;SDS011;38103;42.776;23.112;2022-09-20T05:17:52;5.88;;;2.33;;
52104;SDS011;38103;42.776;23.112;2022-09-20T05:20:45;6.80;;;3.25;;
52104;SDS011;38103;42.776;23.112;2022-09-20T05:26:46;5.40;;;2.10;;
52104;SDS011;38103;42.776;23.112;2022-09-20T05:29:25;6.57;;;2.30;;
52104;SDS011;38103;42.776;23.112;2022-09-20T05:34:53;4.90;;;2.00;;
52104;SDS011;38103;42.776;23.112;2022-09-20T05:37:38;5.82;;;2.20;;
52104;SDS011;38103;42.776;23.112;2022-09-20T05:46:04;7.82;;;2.35;;
52104;SDS011;38103;42.776;23.112;2022-09-20T05:54:23;4.72;;;2.03;;
52104;SDS011;38103;42.776;23.112;2022-09-20T05:59:40;5.88;;;2.10;;
52104;SDS011;38103;42.776;23.112;2022-09-20T06:08:14;7.30;;;2.00;;
52104;SDS011;38103;42.776;23.112;2022-09-20T06:14:09;5.15;;;2.00;;
52104;SDS011;38103;42.776;23.112;2022-09-20T06:16:55;4.43;;;2.00;;
52104;SDS011;38103;42.776;23.112;2022-09-20T06:22:02;5.38;;;1.98;;
52104;SDS011;38103;42.776;23.112;2022-09-20T06:27:09;4.15;;;1.85;;
52104;SDS011;38103;42.776;23.112;2022-09-20T06:29:40;5.00;;;1.90;;
52104;SDS011;38103;42.776;23.112;2022-09-20T06:32:15;4.60;;;1.92;;
52104;SDS011;38103;42.776;23.112;2022-09-20T06:34:41;3.97;;;1.77;;
52104;SDS011;38103;42.776;23.112;2022-09-20T06:37:10;5.18;;;1.88;;
52104;SDS011;38103;42.776;23.112;2022-09-20T06:40:42;3.75;;;1.70;;
52104;SDS011;38103;42.776;23.112;2022-09-20T06:43:18;3.50;;;1.60;;
52104;SDS011;38103;42.776;23.112;2022-09-20T06:45:43;2.53;;;1.50;;
52104;SDS011;38103;42.776;23.112;2022-09-20T06:48:09;4.40;;;1.70;;
52104;SDS011;38103;42.776;23.112;2022-09-20T06:50:37;3.78;;;1.70;;
52104;SDS011;38103;42.776;23.112;2022-09-20T06:53:03;5.82;;;1.67;;
52104;SDS011;38103;42.776;23.112;2022-09-20T06:55:31;4.25;;;1.83;;
52104;SDS011;38103;42.776;23.112;2022-09-20T06:58:01;5.40;;;1.95;;
52104;SDS011;38103;42.776;23.112;2022-09-20T07:00:27;3.70;;;1.70;;
52104;SDS011;38103;42.776;23.112;2022-09-20T07:02:54;9.48;;;2.10;;
52104;SDS011;38103;42.776;23.112;2022-09-20T07:05:20;4.47;;;1.80;;
52104;SDS011;38103;42.776;23.112;2022-09-20T07:07:46;3.90;;;1.70;;
52104;SDS011;38103;42.776;23.112;2022-09-20T07:10:12;5.13;;;1.92;;
52104;SDS011;38103;42.776;23.112;2022-09-20T07:12:39;4.57;;;1.75;;
52104;SDS011;38103;42.776;23.112;2022-09-20T07:15:05;6.20;;;2.13;;
52104;SDS011;38103;42.776;23.112;2022-09-20T07:17:31;5.18;;;1.80;;
52104;SDS011;38103;42.776;23.112;2022-09-20T07:19:58;5.07;;;1.90;;
52104;SDS011;38103;42.776;23.112;2022-09-20T07:22:23;4.50;;;1.80;;
52104;SDS011;38103;42.776;23.112;2022-09-20T07:24:49;5.05;;;1.90;;
52104;SDS011;38103;42.776;23.112;2022-09-20T07:27:15;5.90;;;2.03;;
52104;SDS011;38103;42.776;23.112;2022-09-20T07:29:40;4.65;;;1.90;;
52104;SDS011;38103;42.776;23.112;2022-09-20T07:32:06;6.63;;;2.00;;
52104;SDS011;38103;42.776;23.112;2022-09-20T07:34:32;7.50;;;1.85;;
52104;SDS011;38103;42.776;23.112;2022-09-20T07:36:57;5.03;;;1.90;;
52104;SDS011;38103;42.776;23.112;2022-09-20T07:39:24;5.13;;;1.90;;
52104;SDS011;38103;42.776;23.112;2022-09-20T07:41:50;6.07;;;2.08;;
52104;SDS011;38103;42.776;23.112;2022-09-20T07:44:15;6.05;;;1.80;;
52104;SDS011;38103;42.776;23.112;2022-09-20T07:46:55;6.32;;;2.00;;
52104;SDS011;38103;42.776;23.112;2022-09-20T07:49:24;4.47;;;1.80;;
52104;SDS011;38103;42.776;23.112;2022-09-20T07:51:51;3.65;;;1.70;;
52104;SDS011;38103;42.776;23.112;2022-09-20T07:54:17;4.75;;;1.85;;
52104;SDS011;38103;42.776;23.112;2022-09-20T07:56:43;4.18;;;1.90;;
52104;SDS011;38103;42.776;23.112;2022-09-20T07:59:10;4.22;;;1.70;;
52104;SDS011;38103;42.776;23.112;2022-09-20T08:01:36;4.03;;;1.80;;
52104;SDS011;38103;42.776;23.112;2022-09-20T08:04:03;5.72;;;1.83;;
52104;SDS011;38103;42.776;23.112;2022-09-20T08:06:29;5.93;;;2.15;;
52104;SDS011;38103;42.776;23.112;2022-09-20T08:08:55;5.68;;;2.05;;
52104;SDS011;38103;42.776;23.112;2022-09-20T08:11:22;6.50;;;2.00;;
52104;SDS011;38103;42.776;23.112;2022-09-20T08:13:50;5.95;;;2.08;;
52104;SDS011;38103;42.776;23.112;2022-09-20T08:16:17;4.80;;;1.90;;
52104;SDS011;38103;42.776;23.112;2022-09-20T08:18:44;5.45;;;1.95;;
52104;SDS011;38103;42.776;23.112;2022-09-20T08:21:11;3.65;;;1.73;;
52104;SDS011;38103;42.776;23.112;2022-09-20T08:23:37;3.95;;;1.70;;
52104;SDS011;38103;42.776;23.112;2022-09-20T08:26:05;3.20;;;1.60;;
52104;SDS011;38103;42.776;23.112;2022-09-20T08:28:32;6.47;;;1.90;;
52104;SDS011;38103;42.776;23.112;2022-09-20T08:31:04;4.47;;;1.73;;
52104;SDS011;38103;42.776;23.112;2022-09-20T08:33:32;4.15;;;1.85;;
52104;SDS011;38103;42.776;23.112;2022-09-20T08:35:57;4.57;;;1.70;;
52104;SDS011;38103;42.776;23.112;2022-09-20T08:38:23;2.97;;;1.70;;
52104;SDS011;38103;42.776;23.112;2022-09-20T08:40:53;3.88;;;1.80;;
52104;SDS011;38103;42.776;23.112;2022-09-20T08:43:22;2.83;;;1.60;;
52104;SDS011;38103;42.776;23.112;2022-09-20T08:45:53;4.20;;;1.80;;
52104;SDS011;38103;42.776;23.112;2022-09-20T08:48:23;3.35;;;1.65;;
52104;SDS011;38103;42.776;23.112;2022-09-20T08:50:55;2.90;;;1.60;;
52104;SDS011;38103;42.776;23.112;2022-09-20T08:53:21;5.13;;;1.83;;
52104;SDS011;38103;42.776;23.112;2022-09-20T08:55:46;3.55;;;1.75;;
52104;SDS011;38103;42.776;23.112;2022-09-20T08:58:11;3.72;;;1.77;;
52104;SDS011;38103;42.776;23.112;2022-09-20T09:00:39;4.05;;;1.90;;
52104;SDS011;38103;42.776;23.112;2022-09-20T09:03:10;3.55;;;1.70;;
52104;SDS011;38103;42.776;23.112;2022-09-20T09:05:49;2.67;;;1.60;;
52104;SDS011;38103;42.776;23.112;2022-09-20T09:08:26;3.55;;;1.63;;
52104;SDS011;38103;42.776;23.112;2022-09-20T09:11:02;3.55;;;1.70;;
52104;SDS011;38103;42.776;23.112;2022-09-20T09:16:19;3.33;;;1.70;;
52104;SDS011;38103;42.776;23.112;2022-09-20T09:18:47;5.15;;;1.60;;
52104;SDS011;38103;42.776;23.112;2022-09-20T09:21:19;4.18;;;1.70;;
52104;SDS011;38103;42.776;23.112;2022-09-20T09:26:36;5.57;;;2.00;;
52104;SDS011;38103;42.776;23.112;2022-09-20T09:29:17;4.40;;;1.90;;
52104;SDS011;38103;42.776;23.112;2022-09-20T09:31:46;4.47;;;1.90;;
52104;SDS011;38103;42.776;23.112;2022-09-20T09:36:55;4.43;;;2.00;;
52104;SDS011;38103;42.776;23.112;2022-09-20T09:39:32;5.03;;;1.98;;
52104;SDS011;38103;42.776;23.112;2022-09-20T09:41:59;4.25;;;1.80;;
52104;SDS011;38103;42.776;23.112;2022-09-20T09:44:44;5.18;;;1.80;;
52104;SDS011;38103;42.776;23.112;2022-09-20T09:47:27;4.75;;;1.90;;
52104;SDS011;38103;42.776;23.112;2022-09-20T09:49:56;3.53;;;1.80;;
52104;SDS011;38103;42.776;23.112;2022-09-20T09:52:23;5.25;;;1.95;;
52104;SDS011;38103;42.776;23.112;2022-09-20T09:54:57;8.55;;;3.13;;
52104;SDS011;38103;42.776;23.112;2022-09-20T10:00:02;5.22;;;2.00;;
52104;SDS011;38103;42.776;23.112;2022-09-20T10:05:31;5.28;;;2.08;;
52104;SDS011;38103;42.776;23.112;2022-09-20T10:21:26;6.20;;;2.28;;
52104;SDS011;38103;42.776;23.112;2022-09-20T10:24:07;6.10;;;2.13;;
52104;SDS011;38103;42.776;23.112;2022-09-20T10:27:11;4.80;;;2.10;;
52104;SDS011;38103;42.776;23.112;2022-09-20T10:35:18;5.57;;;2.20;;
52104;SDS011;38103;42.776;23.112;2022-09-20T10:40:36;4.35;;;1.90;;
52104;SDS011;38103;42.776;23.112;2022-09-20T10:43:48;3.88;;;1.80;;
52104;SDS011;38103;42.776;23.112;2022-09-20T10:46:33;5.95;;;1.95;;
52104;SDS011;38103;42.776;23.112;2022-09-20T10:49:25;4.60;;;2.15;;
52104;SDS011;38103;42.776;23.112;2022-09-20T10:57:48;5.05;;;2.10;;
52104;SDS011;38103;42.776;23.112;2022-09-20T11:03:26;5.10;;;2.10;;
52104;SDS011;38103;42.776;23.112;2022-09-20T11:08:37;4.10;;;1.90;;
52104;SDS011;38103;42.776;23.112;2022-09-20T11:11:12;3.65;;;1.80;;
52104;SDS011;38103;42.776;23.112;2022-09-20T11:16:38;6.03;;;1.70;;
52104;SDS011;38103;42.776;23.112;2022-09-20T11:19:22;5.07;;;1.90;;
52104;SDS011;38103;42.776;23.112;2022-09-20T11:24:53;4.72;;;1.95;;
52104;SDS011;38103;42.776;23.112;2022-09-20T11:27:30;5.47;;;2.10;;
52104;SDS011;38103;42.776;23.112;2022-09-20T11:30:20;4.43;;;2.00;;
52104;SDS011;38103;42.776;23.112;2022-09-20T11:35:29;4.10;;;1.85;;
52104;SDS011;38103;42.776;23.112;2022-09-20T11:38:03;3.47;;;1.90;;
52104;SDS011;38103;42.776;23.112;2022-09-20T11:40:37;3.92;;;1.80;;
52104;SDS011;38103;42.776;23.112;2022-09-20T11:43:08;2.90;;;1.70;;
52104;SDS011;38103;42.776;23.112;2022-09-20T11:45:35;3.97;;;1.73;;
52104;SDS011;38103;42.776;23.112;2022-09-20T11:48:19;4.32;;;1.85;;
52104;SDS011;38103;42.776;23.112;2022-09-20T11:58:45;5.53;;;1.90;;
52104;SDS011;38103;42.776;23.112;2022-09-20T12:01:12;4.32;;;2.00;;
52104;SDS011;38103;42.776;23.112;2022-09-20T12:03:49;3.30;;;1.70;;
52104;SDS011;38103;42.776;23.112;2022-09-20T12:06:39;4.93;;;1.77;;
52104;SDS011;38103;42.776;23.112;2022-09-20T12:09:20;3.33;;;1.70;;
52104;SDS011;38103;42.776;23.112;2022-09-20T12:11:49;5.03;;;1.75;;
52104;SDS011;38103;42.776;23.112;2022-09-20T12:14:17;3.22;;;1.67;;
52104;SDS011;38103;42.776;23.112;2022-09-20T12:16:47;4.30;;;1.90;;
52104;SDS011;38103;42.776;23.112;2022-09-20T12:24:32;2.50;;;1.60;;
52104;SDS011;38103;42.776;23.112;2022-09-20T12:30:01;6.35;;;1.90;;
52104;SDS011;38103;42.776;23.112;2022-09-20T12:32:39;3.28;;;1.70;;
52104;SDS011;38103;42.776;23.112;2022-09-20T12:43:51;4.35;;;1.80;;
52104;SDS011;38103;42.776;23.112;2022-09-20T12:46:23;3.90;;;1.90;;
52104;SDS011;38103;42.776;23.112;2022-09-20T13:08:46;2.55;;;1.58;;
52104;SDS011;38103;42.776;23.112;2022-09-20T13:14:25;3.30;;;1.67;;
52104;SDS011;38103;42.776;23.112;2022-09-20T13:19:46;3.75;;;1.70;;
52104;SDS011;38103;42.776;23.112;2022-09-20T13:24:55;3.03;;;1.70;;
52104;SDS011;38103;42.776;23.112;2022-09-20T13:30:16;4.25;;;1.80;;
52104;SDS011;38103;42.776;23.112;2022-09-20T13:40:16;4.35;;;1.67;;
52104;SDS011;38103;42.776;23.112;2022-09-20T13:42:43;3.55;;;1.60;;
52104;SDS011;38103;42.776;23.112;2022-09-20T13:45:11;4.00;;;1.70;;
52104;SDS011;38103;42.776;23.112;2022-09-20T13:47:40;3.08;;;1.52;;
52104;SDS011;38103;42.776;23.112;2022-09-20T13:50:19;4.93;;;1.70;;
52104;SDS011;38103;42.776;23.112;2022-09-20T13:52:49;4.60;;;1.50;;
52104;SDS011;38103;42.776;23.112;2022-09-20T13:57:45;5.32;;;1.73;;
52104;SDS011;38103;42.776;23.112;2022-09-20T14:00:12;4.75;;;1.90;;
52104;SDS011;38103;42.776;23.112;2022-09-20T14:02:39;3.88;;;1.65;;
52104;SDS011;38103;42.776;23.112;2022-09-20T14:05:06;4.30;;;1.80;;
52104;SDS011;38103;42.776;23.112;2022-09-20T14:07:39;3.70;;;1.80;;
52104;SDS011;38103;42.776;23.112;2022-09-20T14:10:25;3.10;;;1.67;;
52104;SDS011;38103;42.776;23.112;2022-09-20T14:13:05;2.80;;;1.65;;
52104;SDS011;38103;42.776;23.112;2022-09-20T14:15:36;4.22;;;1.80;;
52104;SDS011;38103;42.776;23.112;2022-09-20T14:18:06;3.38;;;1.67;;
52104;SDS011;38103;42.776;23.112;2022-09-20T14:20:36;2.22;;;1.40;;
52104;SDS011;38103;42.776;23.112;2022-09-20T14:23:01;3.30;;;1.70;;
52104;SDS011;38103;42.776;23.112;2022-09-20T14:25:28;4.03;;;1.90;;
52104;SDS011;38103;42.776;23.112;2022-09-20T14:30:43;3.30;;;1.63;;
52104;SDS011;38103;42.776;23.112;2022-09-20T14:33:14;4.35;;;1.70;;
52104;SDS011;38103;42.776;23.112;2022-09-20T14:35:46;4.25;;;1.80;;
52104;SDS011;38103;42.776;23.112;2022-09-20T14:38:14;3.42;;;1.60;;
52104;SDS011;38103;42.776;23.112;2022-09-20T14:40:43;4.78;;;1.85;;
52104;SDS011;38103;42.776;23.112;2022-09-20T14:43:43;4.07;;;1.80;;
52104;SDS011;38103;42.776;23.112;2022-09-20T14:46:03;6.25;;;2.28;;
52104;SDS011;38103;42.776;23.112;2022-09-20T14:48:35;4.47;;;1.98;;
52104;SDS011;38103;42.776;23.112;2022-09-20T14:53:36;5.55;;;2.17;;
52104;SDS011;38103;42.776;23.112;2022-09-20T14:58:30;5.80;;;2.00;;
52104;SDS011;38103;42.776;23.112;2022-09-20T15:00:57;5.22;;;1.85;;
52104;SDS011;38103;42.776;23.112;2022-09-20T15:03:26;4.22;;;1.95;;
52104;SDS011;38103;42.776;23.112;2022-09-20T15:05:57;5.05;;;2.50;;
52104;SDS011;38103;42.776;23.112;2022-09-20T15:08:22;5.13;;;2.00;;
52104;SDS011;38103;42.776;23.112;2022-09-20T15:10:48;4.35;;;1.98;;
52104;SDS011;38103;42.776;23.112;2022-09-20T15:13:13;4.10;;;2.00;;
52104;SDS011;38103;42.776;23.112;2022-09-20T15:15:40;5.57;;;2.10;;
52104;SDS011;38103;42.776;23.112;2022-09-20T15:18:20;5.72;;;2.00;;
52104;SDS011;38103;42.776;23.112;2022-09-20T15:20:47;5.18;;;2.10;;
52104;SDS011;38103;42.776;23.112;2022-09-20T15:23:13;4.80;;;2.00;;
52104;SDS011;38103;42.776;23.112;2022-09-20T15:25:39;6.20;;;2.00;;
52104;SDS011;38103;42.776;23.112;2022-09-20T15:28:04;4.95;;;1.90;;
52104;SDS011;38103;42.776;23.112;2022-09-20T15:30:31;5.10;;;2.13;;
52104;SDS011;38103;42.776;23.112;2022-09-20T15:32:57;9.13;;;2.25;;
52104;SDS011;38103;42.776;23.112;2022-09-20T15:35:23;6.47;;;2.20;;
52104;SDS011;38103;42.776;23.112;2022-09-20T15:37:48;6.60;;;2.20;;
52104;SDS011;38103;42.776;23.112;2022-09-20T15:40:13;4.82;;;2.17;;
52104;SDS011;38103;42.776;23.112;2022-09-20T15:42:39;6.75;;;2.50;;
52104;SDS011;38103;42.776;23.112;2022-09-20T15:45:06;5.25;;;2.05;;
52104;SDS011;38103;42.776;23.112;2022-09-20T15:47:34;5.97;;;2.20;;
52104;SDS011;38103;42.776;23.112;2022-09-20T15:50:01;6.43;;;2.38;;
52104;SDS011;38103;42.776;23.112;2022-09-20T15:52:37;6.38;;;2.25;;
52104;SDS011;38103;42.776;23.112;2022-09-20T15:55:05;7.30;;;2.28;;
52104;SDS011;38103;42.776;23.112;2022-09-20T15:57:32;6.85;;;2.50;;
52104;SDS011;38103;42.776;23.112;2022-09-20T15:59:58;5.88;;;2.20;;
52104;SDS011;38103;42.776;23.112;2022-09-20T16:02:24;7.05;;;2.50;;
52104;SDS011;38103;42.776;23.112;2022-09-20T16:04:49;9.32;;;2.92;;
52104;SDS011;38103;42.776;23.112;2022-09-20T16:07:18;6.68;;;2.30;;
52104;SDS011;38103;42.776;23.112;2022-09-20T16:09:49;7.43;;;2.60;;
52104;SDS011;38103;42.776;23.112;2022-09-20T16:12:15;7.35;;;2.60;;
52104;SDS011;38103;42.776;23.112;2022-09-20T16:14:40;7.65;;;2.70;;
52104;SDS011;38103;42.776;23.112;2022-09-20T16:17:06;6.97;;;2.50;;
52104;SDS011;38103;42.776;23.112;2022-09-20T16:19:31;8.13;;;2.75;;
52104;SDS011;38103;42.776;23.112;2022-09-20T16:21:57;7.85;;;2.80;;
52104;SDS011;38103;42.776;23.112;2022-09-20T16:24:23;7.95;;;3.10;;
52104;SDS011;38103;42.776;23.112;2022-09-20T16:26:50;9.60;;;2.90;;
52104;SDS011;38103;42.776;23.112;2022-09-20T16:29:15;7.60;;;2.90;;
52104;SDS011;38103;42.776;23.112;2022-09-20T16:31:45;11.18;;;2.80;;
52104;SDS011;38103;42.776;23.112;2022-09-20T16:36:48;18.73;;;3.00;;
52104;SDS011;38103;42.776;23.112;2022-09-20T16:39:16;12.18;;;3.63;;
52104;SDS011;38103;42.776;23.112;2022-09-20T16:41:44;8.35;;;2.55;;
52104;SDS011;38103;42.776;23.112;2022-09-20T16:44:10;8.75;;;3.10;;
52104;SDS011;38103;42.776;23.112;2022-09-20T16:46:37;8.40;;;2.88;;
52104;SDS011;38103;42.776;23.112;2022-09-20T16:49:06;8.10;;;2.67;;
52104;SDS011;38103;42.776;23.112;2022-09-20T16:51:36;7.65;;;2.88;;
52104;SDS011;38103;42.776;23.112;2022-09-20T16:54:03;8.02;;;3.05;;
52104;SDS011;38103;42.776;23.112;2022-09-20T16:56:32;6.47;;;2.72;;
52104;SDS011;38103;42.776;23.112;2022-09-20T16:58:59;6.50;;;2.50;;
52104;SDS011;38103;42.776;23.112;2022-09-20T17:01:26;7.03;;;2.60;;
52104;SDS011;38103;42.776;23.112;2022-09-20T17:03:52;7.45;;;2.83;;
52104;SDS011;38103;42.776;23.112;2022-09-20T17:06:19;7.95;;;2.95;;
52104;SDS011;38103;42.776;23.112;2022-09-20T17:08:45;7.38;;;3.03;;
52104;SDS011;38103;42.776;23.112;2022-09-20T17:11:15;7.35;;;2.90;;
52104;SDS011;38103;42.776;23.112;2022-09-20T17:13:46;8.30;;;3.10;;
52104;SDS011;38103;42.776;23.112;2022-09-20T17:16:16;7.72;;;2.88;;
52104;SDS011;38103;42.776;23.112;2022-09-20T17:18:44;9.18;;;3.05;;
52104;SDS011;38103;42.776;23.112;2022-09-20T17:21:14;7.22;;;2.85;;
52104;SDS011;38103;42.776;23.112;2022-09-20T17:23:41;7.65;;;2.90;;
52104;SDS011;38103;42.776;23.112;2022-09-20T17:26:12;8.15;;;2.90;;
52104;SDS011;38103;42.776;23.112;2022-09-20T17:28:39;8.90;;;3.25;;
52104;SDS011;38103;42.776;23.112;2022-09-20T17:31:06;7.28;;;2.80;;
52104;SDS011;38103;42.776;23.112;2022-09-20T17:33:34;7.47;;;2.70;;
52104;SDS011;38103;42.776;23.112;2022-09-20T17:36:00;7.70;;;2.92;;
52104;SDS011;38103;42.776;23.112;2022-09-20T17:38:28;7.78;;;2.90;;
52104;SDS011;38103;42.776;23.112;2022-09-20T17:41:02;6.55;;;2.60;;
52104;SDS011;38103;42.776;23.112;2022-09-20T17:43:32;11.23;;;3.10;;
52104;SDS011;38103;42.776;23.112;2022-09-20T17:48:38;7.50;;;2.92;;
52104;SDS011;38103;42.776;23.112;2022-09-20T17:51:04;6.18;;;2.70;;
52104;SDS011;38103;42.776;23.112;2022-09-20T17:53:30;8.15;;;2.90;;
52104;SDS011;38103;42.776;23.112;2022-09-20T17:55:57;8.20;;;3.05;;
52104;SDS011;38103;42.776;23.112;2022-09-20T17:58:24;7.82;;;2.90;;
52104;SDS011;38103;42.776;23.112;2022-09-20T18:00:50;8.38;;;3.10;;
52104;SDS011;38103;42.776;23.112;2022-09-20T18:03:20;8.27;;;3.05;;
52104;SDS011;38103;42.776;23.112;2022-09-20T18:05:46;7.82;;;3.03;;
52104;SDS011;38103;42.776;23.112;2022-09-20T18:08:13;8.32;;;3.17;;
52104;SDS011;38103;42.776;23.112;2022-09-20T18:10:40;8.43;;;3.10;;
52104;SDS011;38103;42.776;23.112;2022-09-20T18:13:05;7.72;;;2.88;;
52104;SDS011;38103;42.776;23.112;2022-09-20T18:15:31;7.20;;;2.80;;
52104;SDS011;38103;42.776;23.112;2022-09-20T18:17:56;7.60;;;2.80;;
52104;SDS011;38103;42.776;23.112;2022-09-20T18:20:22;7.40;;;2.85;;
52104;SDS011;38103;42.776;23.112;2022-09-20T18:22:47;7.25;;;2.78;;
52104;SDS011;38103;42.776;23.112;2022-09-20T18:25:13;7.45;;;2.88;;
52104;SDS011;38103;42.776;23.112;2022-09-20T18:27:38;7.57;;;2.78;;
52104;SDS011;38103;42.776;23.112;2022-09-20T18:30:04;7.28;;;2.90;;
52104;SDS011;38103;42.776;23.112;2022-09-20T18:32:30;7.78;;;2.70;;
52104;SDS011;38103;42.776;23.112;2022-09-20T18:34:56;7.28;;;2.78;;
52104;SDS011;38103;42.776;23.112;2022-09-20T18:37:21;6.53;;;2.65;;
52104;SDS011;38103;42.776;23.112;2022-09-20T18:39:46;7.38;;;2.60;;
52104;SDS011;38103;42.776;23.112;2022-09-20T18:42:13;7.43;;;2.70;;
52104;SDS011;38103;42.776;23.112;2022-09-20T18:44:39;6.43;;;2.47;;
52104;SDS011;38103;42.776;23.112;2022-09-20T18:47:07;7.03;;;2.60;;
52104;SDS011;38103;42.776;23.112;2022-09-20T18:49:33;10.77;;;2.78;;
52104;SDS011;38103;42.776;23.112;2022-09-20T18:51:59;5.95;;;2.33;;
52104;SDS011;38103;42.776;23.112;2022-09-20T18:54:24;6.00;;;2.30;;
52104;SDS011;38103;42.776;23.112;2022-09-20T18:56:54;7.57;;;2.60;;
52104;SDS011;38103;42.776;23.112;2022-09-20T18:59:23;6.93;;;2.70;;
52104;SDS011;38103;42.776;23.112;2022-09-20T19:12:19;6.75;;;2.50;;
52104;SDS011;38103;42.776;23.112;2022-09-20T19:17:51;11.48;;;2.60;;
52104;SDS011;38103;42.776;23.112;2022-09-20T19:20:39;7.53;;;2.80;;
52104;SDS011;38103;42.776;23.112;2022-09-20T19:28:54;7.10;;;2.75;;
52104;SDS011;38103;42.776;23.112;2022-09-20T19:31:24;8.02;;;2.53;;
52104;SDS011;38103;42.776;23.112;2022-09-20T19:33:56;6.88;;;2.70;;
52104;SDS011;38103;42.776;23.112;2022-09-20T19:36:24;7.82;;;2.97;;
52104;SDS011;38103;42.776;23.112;2022-09-20T19:39:06;7.05;;;2.70;;
52104;SDS011;38103;42.776;23.112;2022-09-20T19:44:46;6.57;;;2.53;;
52104;SDS011;38103;42.776;23.112;2022-09-20T19:50:13;6.80;;;2.70;;
52104;SDS011;38103;42.776;23.112;2022-09-20T19:52:58;6.78;;;2.50;;
52104;SDS011;38103;42.776;23.112;2022-09-20T19:55:28;8.20;;;2.80;;
52104;SDS011;38103;42.776;23.112;2022-09-20T19:57:55;6.57;;;2.50;;
52104;SDS011;38103;42.776;23.112;2022-09-20T20:00:21;7.70;;;2.60;;
52104;SDS011;38103;42.776;23.112;2022-09-20T20:02:47;6.43;;;2.72;;
52104;SDS011;38103;42.776;23.112;2022-09-20T20:05:14;7.95;;;3.00;;
52104;SDS011;38103;42.776;23.112;2022-09-20T20:08:18;7.10;;;2.95;;
52104;SDS011;38103;42.776;23.112;2022-09-20T20:13:29;6.70;;;2.70;;
52104;SDS011;38103;42.776;23.112;2022-09-20T20:16:22;7.18;;;2.80;;
52104;SDS011;38103;42.776;23.112;2022-09-20T20:27:01;7.13;;;2.80;;
52104;SDS011;38103;42.776;23.112;2022-09-20T20:29:26;7.18;;;2.80;;
52104;SDS011;38103;42.776;23.112;2022-09-20T20:31:52;6.95;;;2.80;;
52104;SDS011;38103;42.776;23.112;2022-09-20T20:34:18;7.78;;;3.10;;
52104;SDS011;38103;42.776;23.112;2022-09-20T20:36:44;7.30;;;2.80;;